sensor_id;sensor_type;location;lat;lon;timestamp;P1;durP1;ratioP1;P2;durP2;ratioP2
47021;SDS011;32779;52.264;6.154;2023-03-09T00:00:29;20.60;;;13.07;;
47021;SDS011;32779;52.264;6.154;2023-03-09T00:02:55;22.27;;;13.38;;
47021;SDS011;32779;52.264;6.154;2023-03-09T00:05:21;22.90;;;13.50;;
47021;SDS011;32779;52.264;6.154;2023-03-09T00:07:46;21.75;;;13.13;;
47021;SDS011;32779;52.264;6.154;2023-03-09T00:10:12;20.95;;;13.85;;
47021;SDS011;32779;52.264;6.154;2023-03-09T00:12:39;24.33;;;12.80;;
47021;SDS011;32779;52.264;6.154;2023-03-09T00:15:06;23.33;;;13.57;;
47021;SDS011;32779;52.264;6.154;2023-03-09T00:19:57;22.55;;;12.98;;
47021;SDS011;32779;52.264;6.154;2023-03-09T00:22:39;20.30;;;13.43;;
47021;SDS011;32779;52.264;6.154;2023-03-09T00:25:05;21.23;;;13.65;;
47021;SDS011;32779;52.264;6.154;2023-03-09T00:27:32;23.75;;;13.30;;
47021;SDS011;32779;52.264;6.154;2023-03-09T00:29:57;25.48;;;14.40;;
47021;SDS011;32779;52.264;6.154;2023-03-09T00:32:23;25.33;;;14.63;;
47021;SDS011;32779;52.264;6.154;2023-03-09T00:34:48;23.13;;;13.85;;
47021;SDS011;32779;52.264;6.154;2023-03-09T00:37:14;24.33;;;15.50;;
47021;SDS011;32779;52.264;6.154;2023-03-09T00:39:39;24.35;;;14.95;;
47021;SDS011;32779;52.264;6.154;2023-03-09T00:42:05;23.25;;;14.68;;
47021;SDS011;32779;52.264;6.154;2023-03-09T00:44:31;25.50;;;14.75;;
47021;SDS011;32779;52.264;6.154;2023-03-09T00:46:56;28.58;;;15.75;;
47021;SDS011;32779;52.264;6.154;2023-03-09T00:49:22;28.58;;;16.63;;
47021;SDS011;32779;52.264;6.154;2023-03-09T00:51:47;28.30;;;15.57;;
47021;SDS011;32779;52.264;6.154;2023-03-09T00:54:14;24.48;;;15.57;;
47021;SDS011;32779;52.264;6.154;2023-03-09T00:56:39;24.48;;;15.82;;
47021;SDS011;32779;52.264;6.154;2023-03-09T00:59:05;24.33;;;15.10;;
47021;SDS011;32779;52.264;6.154;2023-03-09T01:01:31;27.00;;;16.20;;
47021;SDS011;32779;52.264;6.154;2023-03-09T01:03:57;25.48;;;15.75;;
47021;SDS011;32779;52.264;6.154;2023-03-09T01:06:23;24.75;;;15.85;;
47021;SDS011;32779;52.264;6.154;2023-03-09T01:08:49;24.25;;;15.68;;
47021;SDS011;32779;52.264;6.154;2023-03-09T01:11:16;25.48;;;16.23;;
47021;SDS011;32779;52.264;6.154;2023-03-09T01:13:42;26.83;;;16.38;;
47021;SDS011;32779;52.264;6.154;2023-03-09T01:16:09;24.98;;;16.10;;
47021;SDS011;32779;52.264;6.154;2023-03-09T01:18:35;25.40;;;15.95;;
47021;SDS011;32779;52.264;6.154;2023-03-09T01:21:00;26.83;;;15.52;;
47021;SDS011;32779;52.264;6.154;2023-03-09T01:23:26;23.42;;;15.70;;
47021;SDS011;32779;52.264;6.154;2023-03-09T01:25:52;26.33;;;15.90;;
47021;SDS011;32779;52.264;6.154;2023-03-09T01:28:18;26.77;;;15.30;;
47021;SDS011;32779;52.264;6.154;2023-03-09T01:30:44;26.27;;;15.88;;
47021;SDS011;32779;52.264;6.154;2023-03-09T01:33:10;28.80;;;16.30;;
47021;SDS011;32779;52.264;6.154;2023-03-09T01:35:37;23.73;;;15.03;;
47021;SDS011;32779;52.264;6.154;2023-03-09T01:38:03;24.58;;;15.68;;
47021;SDS011;32779;52.264;6.154;2023-03-09T01:40:29;23.85;;;15.68;;
47021;SDS011;32779;52.264;6.154;2023-03-09T01:42:59;25.27;;;15.45;;
47021;SDS011;32779;52.264;6.154;2023-03-09T01:47:56;25.75;;;16.52;;
47021;SDS011;32779;52.264;6.154;2023-03-09T01:50:25;26.10;;;16.65;;
47021;SDS011;32779;52.264;6.154;2023-03-09T01:52:59;25.02;;;16.15;;
47021;SDS011;32779;52.264;6.154;2023-03-09T01:55:30;26.95;;;16.67;;
47021;SDS011;32779;52.264;6.154;2023-03-09T01:58:06;27.02;;;16.35;;
47021;SDS011;32779;52.264;6.154;2023-03-09T02:00:35;29.25;;;17.38;;
47021;SDS011;32779;52.264;6.154;2023-03-09T02:03:07;29.95;;;17.48;;
47021;SDS011;32779;52.264;6.154;2023-03-09T02:05:41;30.55;;;18.23;;
47021;SDS011;32779;52.264;6.154;2023-03-09T02:08:08;29.67;;;17.55;;
47021;SDS011;32779;52.264;6.154;2023-03-09T02:10:36;26.55;;;17.23;;
47021;SDS011;32779;52.264;6.154;2023-03-09T02:13:09;26.17;;;16.00;;
47021;SDS011;32779;52.264;6.154;2023-03-09T02:15:38;27.63;;;17.60;;
47021;SDS011;32779;52.264;6.154;2023-03-09T02:18:04;26.35;;;16.95;;
47021;SDS011;32779;52.264;6.154;2023-03-09T02:20:38;28.77;;;17.60;;
47021;SDS011;32779;52.264;6.154;2023-03-09T02:23:06;27.15;;;16.52;;
47021;SDS011;32779;52.264;6.154;2023-03-09T02:25:48;29.08;;;18.00;;
47021;SDS011;32779;52.264;6.154;2023-03-09T02:28:23;29.65;;;18.10;;
47021;SDS011;32779;52.264;6.154;2023-03-09T02:30:48;28.75;;;17.63;;
47021;SDS011;32779;52.264;6.154;2023-03-09T02:33:26;28.88;;;17.27;;
47021;SDS011;32779;52.264;6.154;2023-03-09T02:35:54;31.10;;;18.63;;
47021;SDS011;32779;52.264;6.154;2023-03-09T02:38:20;28.88;;;17.77;;
47021;SDS011;32779;52.264;6.154;2023-03-09T02:40:46;29.08;;;17.70;;
47021;SDS011;32779;52.264;6.154;2023-03-09T02:43:13;29.65;;;18.75;;
47021;SDS011;32779;52.264;6.154;2023-03-09T02:45:44;31.48;;;18.10;;
47021;SDS011;32779;52.264;6.154;2023-03-09T02:48:10;31.25;;;18.52;;
47021;SDS011;32779;52.264;6.154;2023-03-09T02:50:36;32.42;;;19.20;;
47021;SDS011;32779;52.264;6.154;2023-03-09T02:53:01;31.17;;;18.45;;
47021;SDS011;32779;52.264;6.154;2023-03-09T02:55:27;34.65;;;19.23;;
47021;SDS011;32779;52.264;6.154;2023-03-09T02:57:53;35.00;;;19.17;;
47021;SDS011;32779;52.264;6.154;2023-03-09T03:00:18;32.53;;;18.58;;
47021;SDS011;32779;52.264;6.154;2023-03-09T03:02:48;32.55;;;19.05;;
47021;SDS011;32779;52.264;6.154;2023-03-09T03:05:14;34.28;;;18.80;;
47021;SDS011;32779;52.264;6.154;2023-03-09T03:07:40;30.60;;;18.48;;
47021;SDS011;32779;52.264;6.154;2023-03-09T03:10:05;33.13;;;19.80;;
47021;SDS011;32779;52.264;6.154;2023-03-09T03:12:31;30.60;;;18.00;;
47021;SDS011;32779;52.264;6.154;2023-03-09T03:14:57;33.83;;;19.55;;
47021;SDS011;32779;52.264;6.154;2023-03-09T03:17:23;29.60;;;17.90;;
47021;SDS011;32779;52.264;6.154;2023-03-09T03:19:49;32.47;;;18.55;;
47021;SDS011;32779;52.264;6.154;2023-03-09T03:22:14;34.40;;;19.95;;
47021;SDS011;32779;52.264;6.154;2023-03-09T03:24:40;30.40;;;18.83;;
47021;SDS011;32779;52.264;6.154;2023-03-09T03:27:06;30.47;;;18.70;;
47021;SDS011;32779;52.264;6.154;2023-03-09T03:29:32;30.38;;;19.17;;
47021;SDS011;32779;52.264;6.154;2023-03-09T03:31:58;33.95;;;18.33;;
47021;SDS011;32779;52.264;6.154;2023-03-09T03:34:23;30.27;;;18.45;;
47021;SDS011;32779;52.264;6.154;2023-03-09T03:36:49;29.02;;;18.63;;
47021;SDS011;32779;52.264;6.154;2023-03-09T03:39:15;32.30;;;18.92;;
47021;SDS011;32779;52.264;6.154;2023-03-09T03:41:41;28.80;;;18.42;;
47021;SDS011;32779;52.264;6.154;2023-03-09T03:44:07;30.52;;;18.35;;
47021;SDS011;32779;52.264;6.154;2023-03-09T03:46:33;29.52;;;18.77;;
47021;SDS011;32779;52.264;6.154;2023-03-09T03:48:58;28.02;;;18.17;;
47021;SDS011;32779;52.264;6.154;2023-03-09T03:51:24;28.02;;;17.63;;
47021;SDS011;32779;52.264;6.154;2023-03-09T03:53:50;31.77;;;18.45;;
47021;SDS011;32779;52.264;6.154;2023-03-09T03:56:15;29.10;;;18.42;;
47021;SDS011;32779;52.264;6.154;2023-03-09T03:58:41;29.00;;;18.90;;
47021;SDS011;32779;52.264;6.154;2023-03-09T04:01:06;27.48;;;17.20;;
47021;SDS011;32779;52.264;6.154;2023-03-09T04:03:32;30.88;;;17.60;;
47021;SDS011;32779;52.264;6.154;2023-03-09T04:05:58;31.65;;;17.88;;
47021;SDS011;32779;52.264;6.154;2023-03-09T04:08:24;30.90;;;18.05;;
47021;SDS011;32779;52.264;6.154;2023-03-09T04:10:50;28.85;;;17.20;;
47021;SDS011;32779;52.264;6.154;2023-03-09T04:13:15;27.23;;;18.38;;
47021;SDS011;32779;52.264;6.154;2023-03-09T04:15:41;28.37;;;17.37;;
47021;SDS011;32779;52.264;6.154;2023-03-09T04:18:06;29.27;;;18.05;;
47021;SDS011;32779;52.264;6.154;2023-03-09T04:20:32;29.42;;;17.52;;
47021;SDS011;32779;52.264;6.154;2023-03-09T04:22:59;28.05;;;17.65;;
47021;SDS011;32779;52.264;6.154;2023-03-09T04:25:25;27.95;;;17.65;;
47021;SDS011;32779;52.264;6.154;2023-03-09T04:27:51;32.10;;;18.98;;
47021;SDS011;32779;52.264;6.154;2023-03-09T04:30:17;29.60;;;18.15;;
47021;SDS011;32779;52.264;6.154;2023-03-09T04:32:46;27.60;;;16.35;;
47021;SDS011;32779;52.264;6.154;2023-03-09T04:35:15;33.33;;;18.45;;
47021;SDS011;32779;52.264;6.154;2023-03-09T04:40:08;28.70;;;17.65;;
47021;SDS011;32779;52.264;6.154;2023-03-09T04:42:35;27.98;;;16.98;;
47021;SDS011;32779;52.264;6.154;2023-03-09T04:45:00;30.38;;;17.98;;
47021;SDS011;32779;52.264;6.154;2023-03-09T04:47:26;31.27;;;18.23;;
47021;SDS011;32779;52.264;6.154;2023-03-09T04:49:52;29.53;;;17.67;;
47021;SDS011;32779;52.264;6.154;2023-03-09T04:52:17;29.65;;;17.88;;
47021;SDS011;32779;52.264;6.154;2023-03-09T04:54:43;29.47;;;17.67;;
47021;SDS011;32779;52.264;6.154;2023-03-09T04:57:08;29.60;;;18.27;;
47021;SDS011;32779;52.264;6.154;2023-03-09T04:59:34;30.77;;;18.02;;
47021;SDS011;32779;52.264;6.154;2023-03-09T05:01:59;30.83;;;18.83;;
47021;SDS011;32779;52.264;6.154;2023-03-09T05:04:25;29.50;;;18.00;;
47021;SDS011;32779;52.264;6.154;2023-03-09T05:06:51;28.88;;;18.73;;
47021;SDS011;32779;52.264;6.154;2023-03-09T05:09:16;27.95;;;17.10;;
47021;SDS011;32779;52.264;6.154;2023-03-09T05:11:42;31.23;;;19.45;;
47021;SDS011;32779;52.264;6.154;2023-03-09T05:14:08;28.35;;;17.90;;
47021;SDS011;32779;52.264;6.154;2023-03-09T05:16:33;31.17;;;19.15;;
47021;SDS011;32779;52.264;6.154;2023-03-09T05:18:59;29.75;;;18.58;;
47021;SDS011;32779;52.264;6.154;2023-03-09T05:21:25;28.80;;;17.48;;
47021;SDS011;32779;52.264;6.154;2023-03-09T05:23:50;30.30;;;18.30;;
47021;SDS011;32779;52.264;6.154;2023-03-09T05:26:16;28.58;;;18.05;;
47021;SDS011;32779;52.264;6.154;2023-03-09T05:28:42;31.13;;;19.50;;
47021;SDS011;32779;52.264;6.154;2023-03-09T05:31:08;28.70;;;17.90;;
47021;SDS011;32779;52.264;6.154;2023-03-09T05:33:38;32.53;;;19.63;;
47021;SDS011;32779;52.264;6.154;2023-03-09T05:36:13;31.27;;;18.50;;
47021;SDS011;32779;52.264;6.154;2023-03-09T05:38:41;30.65;;;18.67;;
47021;SDS011;32779;52.264;6.154;2023-03-09T05:41:06;32.40;;;19.42;;
47021;SDS011;32779;52.264;6.154;2023-03-09T05:43:32;32.03;;;18.45;;
47021;SDS011;32779;52.264;6.154;2023-03-09T05:45:58;31.05;;;19.27;;
47021;SDS011;32779;52.264;6.154;2023-03-09T05:48:24;35.55;;;19.95;;
47021;SDS011;32779;52.264;6.154;2023-03-09T05:50:49;33.87;;;20.00;;
47021;SDS011;32779;52.264;6.154;2023-03-09T05:53:15;32.45;;;19.77;;
47021;SDS011;32779;52.264;6.154;2023-03-09T05:55:41;31.08;;;18.58;;
47021;SDS011;32779;52.264;6.154;2023-03-09T05:58:06;32.92;;;19.45;;
47021;SDS011;32779;52.264;6.154;2023-03-09T06:00:32;30.52;;;19.23;;
47021;SDS011;32779;52.264;6.154;2023-03-09T06:02:58;33.35;;;20.70;;
47021;SDS011;32779;52.264;6.154;2023-03-09T06:05:23;36.65;;;19.98;;
47021;SDS011;32779;52.264;6.154;2023-03-09T06:07:49;29.95;;;18.52;;
47021;SDS011;32779;52.264;6.154;2023-03-09T06:10:16;31.70;;;19.90;;
47021;SDS011;32779;52.264;6.154;2023-03-09T06:12:42;30.27;;;18.67;;
47021;SDS011;32779;52.264;6.154;2023-03-09T06:15:08;32.53;;;19.38;;
47021;SDS011;32779;52.264;6.154;2023-03-09T06:17:33;28.67;;;18.67;;
47021;SDS011;32779;52.264;6.154;2023-03-09T06:19:59;32.58;;;19.42;;
47021;SDS011;32779;52.264;6.154;2023-03-09T06:22:25;32.92;;;19.70;;
47021;SDS011;32779;52.264;6.154;2023-03-09T06:24:50;34.92;;;19.55;;
47021;SDS011;32779;52.264;6.154;2023-03-09T06:27:16;31.95;;;19.70;;
47021;SDS011;32779;52.264;6.154;2023-03-09T06:29:41;32.38;;;19.83;;
47021;SDS011;32779;52.264;6.154;2023-03-09T06:32:07;33.17;;;19.15;;
47021;SDS011;32779;52.264;6.154;2023-03-09T06:34:33;33.53;;;20.17;;
47021;SDS011;32779;52.264;6.154;2023-03-09T06:36:58;33.53;;;19.85;;
47021;SDS011;32779;52.264;6.154;2023-03-09T06:39:24;33.27;;;20.53;;
47021;SDS011;32779;52.264;6.154;2023-03-09T06:41:50;29.55;;;19.08;;
47021;SDS011;32779;52.264;6.154;2023-03-09T06:44:15;33.20;;;20.27;;
47021;SDS011;32779;52.264;6.154;2023-03-09T06:46:41;32.17;;;20.37;;
47021;SDS011;32779;52.264;6.154;2023-03-09T06:49:06;33.30;;;19.65;;
47021;SDS011;32779;52.264;6.154;2023-03-09T06:51:32;34.00;;;20.70;;
47021;SDS011;32779;52.264;6.154;2023-03-09T06:53:57;30.55;;;18.92;;
47021;SDS011;32779;52.264;6.154;2023-03-09T06:56:23;30.88;;;18.80;;
47021;SDS011;32779;52.264;6.154;2023-03-09T06:58:48;30.83;;;19.08;;
47021;SDS011;32779;52.264;6.154;2023-03-09T07:01:16;33.03;;;20.05;;
47021;SDS011;32779;52.264;6.154;2023-03-09T07:03:42;31.02;;;19.27;;
47021;SDS011;32779;52.264;6.154;2023-03-09T07:06:08;31.10;;;19.17;;
47021;SDS011;32779;52.264;6.154;2023-03-09T07:08:34;32.55;;;18.73;;
47021;SDS011;32779;52.264;6.154;2023-03-09T07:10:59;33.70;;;20.33;;
47021;SDS011;32779;52.264;6.154;2023-03-09T07:13:25;35.40;;;20.73;;
47021;SDS011;32779;52.264;6.154;2023-03-09T07:15:51;32.55;;;19.10;;
47021;SDS011;32779;52.264;6.154;2023-03-09T07:18:17;34.17;;;20.42;;
47021;SDS011;32779;52.264;6.154;2023-03-09T07:20:42;32.72;;;19.70;;
47021;SDS011;32779;52.264;6.154;2023-03-09T07:23:08;32.13;;;19.85;;
47021;SDS011;32779;52.264;6.154;2023-03-09T07:25:35;32.17;;;19.08;;
47021;SDS011;32779;52.264;6.154;2023-03-09T07:28:02;33.00;;;20.02;;
47021;SDS011;32779;52.264;6.154;2023-03-09T07:30:29;33.70;;;20.88;;
47021;SDS011;32779;52.264;6.154;2023-03-09T07:35:21;32.03;;;19.27;;
47021;SDS011;32779;52.264;6.154;2023-03-09T07:37:46;32.85;;;19.77;;
47021;SDS011;32779;52.264;6.154;2023-03-09T07:40:12;37.53;;;22.05;;
47021;SDS011;32779;52.264;6.154;2023-03-09T07:42:38;32.65;;;20.30;;
47021;SDS011;32779;52.264;6.154;2023-03-09T07:45:04;31.80;;;19.15;;
47021;SDS011;32779;52.264;6.154;2023-03-09T07:47:30;34.67;;;21.60;;
47021;SDS011;32779;52.264;6.154;2023-03-09T07:49:57;34.70;;;20.38;;
47021;SDS011;32779;52.264;6.154;2023-03-09T07:52:24;35.15;;;20.52;;
47021;SDS011;32779;52.264;6.154;2023-03-09T07:54:56;38.00;;;21.13;;
47021;SDS011;32779;52.264;6.154;2023-03-09T07:57:29;36.80;;;21.65;;
47021;SDS011;32779;52.264;6.154;2023-03-09T07:59:56;32.78;;;20.33;;
47021;SDS011;32779;52.264;6.154;2023-03-09T08:02:22;30.92;;;19.83;;
47021;SDS011;32779;52.264;6.154;2023-03-09T08:04:47;36.28;;;21.38;;
47021;SDS011;32779;52.264;6.154;2023-03-09T08:07:13;33.55;;;20.83;;
47021;SDS011;32779;52.264;6.154;2023-03-09T08:09:39;33.30;;;20.65;;
47021;SDS011;32779;52.264;6.154;2023-03-09T08:12:05;33.83;;;20.73;;
47021;SDS011;32779;52.264;6.154;2023-03-09T08:14:31;37.58;;;22.45;;
47021;SDS011;32779;52.264;6.154;2023-03-09T08:16:57;33.25;;;20.15;;
47021;SDS011;32779;52.264;6.154;2023-03-09T08:19:23;32.95;;;20.42;;
47021;SDS011;32779;52.264;6.154;2023-03-09T08:21:48;31.60;;;19.95;;
47021;SDS011;32779;52.264;6.154;2023-03-09T08:26:40;30.85;;;19.35;;
47021;SDS011;32779;52.264;6.154;2023-03-09T08:29:06;32.97;;;21.08;;
47021;SDS011;32779;52.264;6.154;2023-03-09T08:31:32;31.75;;;19.50;;
47021;SDS011;32779;52.264;6.154;2023-03-09T08:33:58;33.42;;;20.23;;
47021;SDS011;32779;52.264;6.154;2023-03-09T08:36:24;32.85;;;20.92;;
47021;SDS011;32779;52.264;6.154;2023-03-09T08:38:50;32.00;;;19.77;;
47021;SDS011;32779;52.264;6.154;2023-03-09T08:41:16;31.60;;;19.88;;
47021;SDS011;32779;52.264;6.154;2023-03-09T08:43:41;34.35;;;20.52;;
47021;SDS011;32779;52.264;6.154;2023-03-09T08:46:07;32.08;;;19.95;;
47021;SDS011;32779;52.264;6.154;2023-03-09T08:48:33;31.35;;;19.70;;
47021;SDS011;32779;52.264;6.154;2023-03-09T08:50:59;36.35;;;21.02;;
47021;SDS011;32779;52.264;6.154;2023-03-09T08:53:26;33.40;;;20.13;;
47021;SDS011;32779;52.264;6.154;2023-03-09T08:55:52;30.88;;;19.65;;
47021;SDS011;32779;52.264;6.154;2023-03-09T08:58:17;33.35;;;19.50;;
47021;SDS011;32779;52.264;6.154;2023-03-09T09:00:43;31.17;;;20.30;;
47021;SDS011;32779;52.264;6.154;2023-03-09T09:03:08;31.90;;;18.80;;
47021;SDS011;32779;52.264;6.154;2023-03-09T09:05:34;29.70;;;19.38;;
47021;SDS011;32779;52.264;6.154;2023-03-09T09:08:02;31.52;;;19.60;;
47021;SDS011;32779;52.264;6.154;2023-03-09T09:10:28;31.55;;;20.15;;
47021;SDS011;32779;52.264;6.154;2023-03-09T09:12:54;31.92;;;19.55;;
47021;SDS011;32779;52.264;6.154;2023-03-09T09:15:19;31.80;;;20.00;;
47021;SDS011;32779;52.264;6.154;2023-03-09T09:17:45;29.38;;;18.50;;
47021;SDS011;32779;52.264;6.154;2023-03-09T09:20:10;27.92;;;18.02;;
47021;SDS011;32779;52.264;6.154;2023-03-09T09:22:39;29.80;;;18.40;;
47021;SDS011;32779;52.264;6.154;2023-03-09T09:25:06;31.38;;;18.63;;
47021;SDS011;32779;52.264;6.154;2023-03-09T09:27:33;29.08;;;18.70;;
47021;SDS011;32779;52.264;6.154;2023-03-09T09:30:00;31.90;;;19.27;;
47021;SDS011;32779;52.264;6.154;2023-03-09T09:32:26;31.15;;;19.88;;
47021;SDS011;32779;52.264;6.154;2023-03-09T09:34:52;29.95;;;18.48;;
47021;SDS011;32779;52.264;6.154;2023-03-09T09:37:18;31.48;;;19.70;;
47021;SDS011;32779;52.264;6.154;2023-03-09T09:39:44;29.55;;;18.98;;
47021;SDS011;32779;52.264;6.154;2023-03-09T09:44:56;29.73;;;19.50;;
47021;SDS011;32779;52.264;6.154;2023-03-09T09:47:23;35.47;;;19.75;;
47021;SDS011;32779;52.264;6.154;2023-03-09T09:49:52;31.55;;;19.67;;
47021;SDS011;32779;52.264;6.154;2023-03-09T09:52:22;30.13;;;19.00;;
47021;SDS011;32779;52.264;6.154;2023-03-09T09:55:06;31.42;;;19.73;;
47021;SDS011;32779;52.264;6.154;2023-03-09T09:58:08;32.42;;;19.27;;
47021;SDS011;32779;52.264;6.154;2023-03-09T10:00:55;30.80;;;18.58;;
47021;SDS011;32779;52.264;6.154;2023-03-09T10:03:31;30.02;;;18.33;;
47021;SDS011;32779;52.264;6.154;2023-03-09T10:06:01;29.77;;;18.98;;
47021;SDS011;32779;52.264;6.154;2023-03-09T10:08:49;30.52;;;18.17;;
47021;SDS011;32779;52.264;6.154;2023-03-09T10:11:31;30.02;;;18.67;;
47021;SDS011;32779;52.264;6.154;2023-03-09T10:14:09;27.27;;;17.48;;
47021;SDS011;32779;52.264;6.154;2023-03-09T10:17:06;30.08;;;18.00;;
47021;SDS011;32779;52.264;6.154;2023-03-09T10:19:43;30.40;;;18.23;;
47021;SDS011;32779;52.264;6.154;2023-03-09T10:24:39;28.10;;;17.88;;
47021;SDS011;32779;52.264;6.154;2023-03-09T10:32:46;24.05;;;16.15;;
47021;SDS011;32779;52.264;6.154;2023-03-09T10:35:21;24.60;;;15.70;;
47021;SDS011;32779;52.264;6.154;2023-03-09T10:37:58;27.73;;;16.63;;
47021;SDS011;32779;52.264;6.154;2023-03-09T10:42:52;24.60;;;15.50;;
47021;SDS011;32779;52.264;6.154;2023-03-09T10:45:25;27.83;;;17.23;;
47021;SDS011;32779;52.264;6.154;2023-03-09T10:47:52;32.13;;;18.02;;
47021;SDS011;32779;52.264;6.154;2023-03-09T10:56:10;28.52;;;17.08;;
47021;SDS011;32779;52.264;6.154;2023-03-09T10:58:38;28.27;;;17.25;;
47021;SDS011;32779;52.264;6.154;2023-03-09T11:01:05;28.10;;;17.48;;
47021;SDS011;32779;52.264;6.154;2023-03-09T11:03:47;26.88;;;16.75;;
47021;SDS011;32779;52.264;6.154;2023-03-09T11:09:16;28.27;;;18.20;;
47021;SDS011;32779;52.264;6.154;2023-03-09T11:11:49;29.00;;;18.10;;
47021;SDS011;32779;52.264;6.154;2023-03-09T11:14:25;27.40;;;18.00;;
47021;SDS011;32779;52.264;6.154;2023-03-09T11:16:57;29.52;;;18.40;;
47021;SDS011;32779;52.264;6.154;2023-03-09T11:19:26;28.33;;;17.65;;
47021;SDS011;32779;52.264;6.154;2023-03-09T11:24:22;26.80;;;17.13;;
47021;SDS011;32779;52.264;6.154;2023-03-09T11:27:11;25.27;;;16.38;;
47021;SDS011;32779;52.264;6.154;2023-03-09T11:29:57;27.58;;;17.50;;
47021;SDS011;32779;52.264;6.154;2023-03-09T11:32:31;24.85;;;16.52;;
47021;SDS011;32779;52.264;6.154;2023-03-09T11:34:56;25.85;;;16.52;;
47021;SDS011;32779;52.264;6.154;2023-03-09T11:40:13;26.92;;;17.45;;
47021;SDS011;32779;52.264;6.154;2023-03-09T11:48:04;26.75;;;16.98;;
47021;SDS011;32779;52.264;6.154;2023-03-09T11:51:04;25.33;;;16.33;;
47021;SDS011;32779;52.264;6.154;2023-03-09T11:53:34;25.92;;;16.50;;
47021;SDS011;32779;52.264;6.154;2023-03-09T11:56:29;26.67;;;16.88;;
47021;SDS011;32779;52.264;6.154;2023-03-09T11:58:59;26.98;;;17.20;;
47021;SDS011;32779;52.264;6.154;2023-03-09T12:04:38;27.60;;;17.42;;
47021;SDS011;32779;52.264;6.154;2023-03-09T12:07:18;29.05;;;17.55;;
47021;SDS011;32779;52.264;6.154;2023-03-09T12:10:21;26.75;;;17.15;;
47021;SDS011;32779;52.264;6.154;2023-03-09T12:12:47;27.13;;;17.13;;
47021;SDS011;32779;52.264;6.154;2023-03-09T12:15:25;26.77;;;16.85;;
47021;SDS011;32779;52.264;6.154;2023-03-09T12:17:59;27.20;;;17.65;;
47021;SDS011;32779;52.264;6.154;2023-03-09T12:20:31;24.98;;;15.65;;
47021;SDS011;32779;52.264;6.154;2023-03-09T12:26:22;23.42;;;15.30;;
47021;SDS011;32779;52.264;6.154;2023-03-09T12:28:58;29.13;;;16.80;;
47021;SDS011;32779;52.264;6.154;2023-03-09T12:31:40;27.17;;;16.77;;
47021;SDS011;32779;52.264;6.154;2023-03-09T12:36:38;26.90;;;17.08;;
47021;SDS011;32779;52.264;6.154;2023-03-09T12:41:57;26.92;;;17.88;;
47021;SDS011;32779;52.264;6.154;2023-03-09T12:49:49;26.98;;;17.38;;
47021;SDS011;32779;52.264;6.154;2023-03-09T12:54:58;28.27;;;17.70;;
47021;SDS011;32779;52.264;6.154;2023-03-09T12:57:26;25.85;;;17.15;;
47021;SDS011;32779;52.264;6.154;2023-03-09T12:59:52;28.75;;;18.50;;
47021;SDS011;32779;52.264;6.154;2023-03-09T13:02:51;29.40;;;17.15;;
47021;SDS011;32779;52.264;6.154;2023-03-09T13:08:16;25.75;;;16.73;;
47021;SDS011;32779;52.264;6.154;2023-03-09T13:10:45;24.95;;;16.10;;
47021;SDS011;32779;52.264;6.154;2023-03-09T13:13:54;26.75;;;17.13;;
47021;SDS011;32779;52.264;6.154;2023-03-09T13:24:16;24.77;;;16.70;;
47021;SDS011;32779;52.264;6.154;2023-03-09T13:26:43;23.02;;;15.30;;
47021;SDS011;32779;52.264;6.154;2023-03-09T13:29:13;23.30;;;15.27;;
47021;SDS011;32779;52.264;6.154;2023-03-09T13:31:41;22.83;;;15.73;;
47021;SDS011;32779;52.264;6.154;2023-03-09T13:34:14;25.23;;;15.85;;
47021;SDS011;32779;52.264;6.154;2023-03-09T13:36:50;26.10;;;16.13;;
47021;SDS011;32779;52.264;6.154;2023-03-09T13:39:19;26.45;;;16.33;;
47021;SDS011;32779;52.264;6.154;2023-03-09T13:41:47;26.33;;;16.33;;
47021;SDS011;32779;52.264;6.154;2023-03-09T13:44:21;25.92;;;16.02;;
47021;SDS011;32779;52.264;6.154;2023-03-09T13:46:58;26.75;;;16.83;;
47021;SDS011;32779;52.264;6.154;2023-03-09T13:49:25;25.48;;;16.25;;
47021;SDS011;32779;52.264;6.154;2023-03-09T13:52:05;26.23;;;16.95;;
47021;SDS011;32779;52.264;6.154;2023-03-09T13:54:52;27.35;;;17.15;;
47021;SDS011;32779;52.264;6.154;2023-03-09T13:57:30;28.95;;;16.13;;
47021;SDS011;32779;52.264;6.154;2023-03-09T13:59:59;28.70;;;16.92;;
47021;SDS011;32779;52.264;6.154;2023-03-09T14:02:27;26.95;;;16.95;;
47021;SDS011;32779;52.264;6.154;2023-03-09T14:07:24;23.52;;;15.77;;
47021;SDS011;32779;52.264;6.154;2023-03-09T14:10:07;28.17;;;17.98;;
47021;SDS011;32779;52.264;6.154;2023-03-09T14:12:41;25.70;;;16.00;;
47021;SDS011;32779;52.264;6.154;2023-03-09T14:15:16;26.92;;;17.35;;
47021;SDS011;32779;52.264;6.154;2023-03-09T14:17:44;26.08;;;16.17;;
47021;SDS011;32779;52.264;6.154;2023-03-09T14:20:20;31.60;;;17.85;;
47021;SDS011;32779;52.264;6.154;2023-03-09T14:22:47;27.25;;;16.88;;
47021;SDS011;32779;52.264;6.154;2023-03-09T14:25:47;28.30;;;17.23;;
47021;SDS011;32779;52.264;6.154;2023-03-09T14:28:25;28.38;;;17.58;;
47021;SDS011;32779;52.264;6.154;2023-03-09T14:30:53;29.67;;;17.63;;
47021;SDS011;32779;52.264;6.154;2023-03-09T14:35:49;28.35;;;17.33;;
47021;SDS011;32779;52.264;6.154;2023-03-09T14:40:42;27.92;;;17.55;;
47021;SDS011;32779;52.264;6.154;2023-03-09T14:45:49;28.33;;;17.13;;
47021;SDS011;32779;52.264;6.154;2023-03-09T14:48:16;27.92;;;18.10;;
47021;SDS011;32779;52.264;6.154;2023-03-09T14:50:42;27.27;;;16.30;;
47021;SDS011;32779;52.264;6.154;2023-03-09T14:53:14;26.60;;;16.63;;
47021;SDS011;32779;52.264;6.154;2023-03-09T14:55:41;27.13;;;17.05;;
47021;SDS011;32779;52.264;6.154;2023-03-09T14:58:10;25.20;;;15.95;;
47021;SDS011;32779;52.264;6.154;2023-03-09T15:00:37;27.83;;;16.92;;
47021;SDS011;32779;52.264;6.154;2023-03-09T15:03:07;25.70;;;15.63;;
47021;SDS011;32779;52.264;6.154;2023-03-09T15:05:33;28.50;;;16.40;;
47021;SDS011;32779;52.264;6.154;2023-03-09T15:07:58;36.30;;;18.57;;
47021;SDS011;32779;52.264;6.154;2023-03-09T15:10:24;28.35;;;16.48;;
47021;SDS011;32779;52.264;6.154;2023-03-09T15:12:51;30.13;;;17.30;;
47021;SDS011;32779;52.264;6.154;2023-03-09T15:15:20;31.80;;;18.45;;
47021;SDS011;32779;52.264;6.154;2023-03-09T15:17:48;29.13;;;18.05;;
47021;SDS011;32779;52.264;6.154;2023-03-09T15:20:19;32.33;;;18.10;;
47021;SDS011;32779;52.264;6.154;2023-03-09T15:22:46;28.77;;;17.33;;
47021;SDS011;32779;52.264;6.154;2023-03-09T15:25:14;29.40;;;17.45;;
47021;SDS011;32779;52.264;6.154;2023-03-09T15:27:41;27.98;;;17.30;;
47021;SDS011;32779;52.264;6.154;2023-03-09T15:30:09;27.58;;;16.95;;
47021;SDS011;32779;52.264;6.154;2023-03-09T15:32:36;27.48;;;16.25;;
47021;SDS011;32779;52.264;6.154;2023-03-09T15:35:02;26.00;;;16.58;;
47021;SDS011;32779;52.264;6.154;2023-03-09T15:37:28;29.38;;;17.23;;
47021;SDS011;32779;52.264;6.154;2023-03-09T15:39:53;27.25;;;16.67;;
47021;SDS011;32779;52.264;6.154;2023-03-09T15:42:19;30.45;;;17.25;;
47021;SDS011;32779;52.264;6.154;2023-03-09T15:44:45;27.95;;;17.40;;
47021;SDS011;32779;52.264;6.154;2023-03-09T15:47:10;28.48;;;17.33;;
47021;SDS011;32779;52.264;6.154;2023-03-09T15:49:36;30.48;;;18.10;;
47021;SDS011;32779;52.264;6.154;2023-03-09T15:52:01;27.73;;;16.88;;
47021;SDS011;32779;52.264;6.154;2023-03-09T15:54:27;28.60;;;17.50;;